sensor_id;sensor_type;location;lat;lon;timestamp;pressure;altitude;pressure_sealevel;temperature;humidity
77954;BME280;67151;52.544;6.034;2023-11-22T00:00:04;102750;;;21.1;46.3
77954;BME280;67151;52.544;6.034;2023-11-22T00:00:19;102750;;;21.1;46.2
77954;BME280;67151;52.544;6.034;2023-11-22T00:00:34;102750;;;21.1;46.2
77954;BME280;67151;52.544;6.034;2023-11-22T00:00:49;102750;;;21.1;46.2
77954;BME280;67151;52.544;6.034;2023-11-22T00:01:04;102750;;;21.1;46.2
77954;BME280;67151;52.544;6.034;2023-11-22T00:01:19;102750;;;21.1;46.2
77954;BME280;67151;52.544;6.034;2023-11-22T00:01:34;102750;;;21.1;46.2
77954;BME280;67151;52.544;6.034;2023-11-22T00:01:49;102750;;;21.1;46.2
77954;BME280;67151;52.544;6.034;2023-11-22T00:02:04;102750;;;21.1;46.2
77954;BME280;67151;52.544;6.034;2023-11-22T00:02:19;102750;;;21.1;46.2
77954;BME280;67151;52.544;6.034;2023-11-22T00:02:34;102750;;;21.1;46.2
77954;BME280;67151;52.544;6.034;2023-11-22T00:02:49;102750;;;21.1;46.2
77954;BME280;67151;52.544;6.034;2023-11-22T00:03:04;102750;;;21.1;46.2
77954;BME280;67151;52.544;6.034;2023-11-22T00:03:19;102740.00000000001;;;21.1;46.2
77954;BME280;67151;52.544;6.034;2023-11-22T00:03:34;102759.99999999999;;;21.2;46.1
77954;BME280;67151;52.544;6.034;2023-11-22T00:03:49;102750;;;21.1;46.1
77954;BME280;67151;52.544;6.034;2023-11-22T00:04:04;102740.00000000001;;;21.1;46.2
77954;BME280;67151;52.544;6.034;2023-11-22T00:04:19;102750;;;21.2;46.1
77954;BME280;67151;52.544;6.034;2023-11-22T00:04:34;102750;;;21.2;46.1
77954;BME280;67151;52.544;6.034;2023-11-22T00:04:49;102750;;;21.1;46.2
77954;BME280;67151;52.544;6.034;2023-11-22T00:05:04;102750;;;21.2;46.1
77954;BME280;67151;52.544;6.034;2023-11-22T00:05:19;102750;;;21.2;46.1
77954;BME280;67151;52.544;6.034;2023-11-22T00:05:34;102750;;;21.2;46.1
77954;BME280;67151;52.544;6.034;2023-11-22T00:05:49;102750;;;21.2;46.1
77954;BME280;67151;52.544;6.034;2023-11-22T00:06:04;102740.00000000001;;;21.2;46.1
77954;BME280;67151;52.544;6.034;2023-11-22T00:06:19;102740.00000000001;;;21.2;46.1
77954;BME280;67151;52.544;6.034;2023-11-22T00:06:34;102740.00000000001;;;21.2;46
77954;BME280;67151;52.544;6.034;2023-11-22T00:06:49;102750;;;21.2;46.1
77954;BME280;67151;52.544;6.034;2023-11-22T00:07:04;102750;;;21.2;46.1
77954;BME280;67151;52.544;6.034;2023-11-22T00:07:19;102750;;;21.2;46.1
77954;BME280;67151;52.544;6.034;2023-11-22T00:07:34;102750;;;21.2;46.1
77954;BME280;67151;52.544;6.034;2023-11-22T00:07:49;102750;;;21.2;46.1
77954;BME280;67151;52.544;6.034;2023-11-22T00:08:04;102750;;;21.2;46.1
77954;BME280;67151;52.544;6.034;2023-11-22T00:08:19;102759.99999999999;;;21.1;46.1
77954;BME280;67151;52.544;6.034;2023-11-22T00:08:34;102750;;;21.2;46.1
77954;BME280;67151;52.544;6.034;2023-11-22T00:08:49;102750;;;21.2;46.1
77954;BME280;67151;52.544;6.034;2023-11-22T00:09:04;102750;;;21.2;46.1
77954;BME280;67151;52.544;6.034;2023-11-22T00:09:19;102750;;;21.1;46.2
77954;BME280;67151;52.544;6.034;2023-11-22T00:09:34;102750;;;21.1;46.1
77954;BME280;67151;52.544;6.034;2023-11-22T00:09:49;102750;;;21.1;46.1
77954;BME280;67151;52.544;6.034;2023-11-22T00:10:04;102750;;;21.1;46.1
77954;BME280;67151;52.544;6.034;2023-11-22T00:10:19;102750;;;21.1;46.2
77954;BME280;67151;52.544;6.034;2023-11-22T00:10:34;102750;;;21.1;46.2
77954;BME280;67151;52.544;6.034;2023-11-22T00:10:49;102750;;;21.1;46.2
77954;BME280;67151;52.544;6.034;2023-11-22T00:11:04;102759.99999999999;;;21.1;46.2
77954;BME280;67151;52.544;6.034;2023-11-22T00:11:19;102759.99999999999;;;21.1;46.2
77954;BME280;67151;52.544;6.034;2023-11-22T00:11:34;102759.99999999999;;;21.1;46.1
77954;BME280;67151;52.544;6.034;2023-11-22T00:11:49;102750;;;21.1;46.2
77954;BME280;67151;52.544;6.034;2023-11-22T00:12:04;102759.99999999999;;;21.1;46.2
77954;BME280;67151;52.544;6.034;2023-11-22T00:12:19;102759.99999999999;;;21.1;46.2
77954;BME280;67151;52.544;6.034;2023-11-22T00:12:34;102759.99999999999;;;21.1;46.2
77954;BME280;67151;52.544;6.034;2023-11-22T00:12:49;102750;;;21.1;46.2
77954;BME280;67151;52.544;6.034;2023-11-22T00:13:04;102759.99999999999;;;21.1;46.2
77954;BME280;67151;52.544;6.034;2023-11-22T00:13:19;102750;;;21.1;46.2
77954;BME280;67151;52.544;6.034;2023-11-22T00:13:34;102759.99999999999;;;21.1;46.1
77954;BME280;67151;52.544;6.034;2023-11-22T00:13:49;102759.99999999999;;;21.1;46.2
77954;BME280;67151;52.544;6.034;2023-11-22T00:14:04;102759.99999999999;;;21.1;46.2
77954;BME280;67151;52.544;6.034;2023-11-22T00:14:19;102750;;;21.1;46.2
77954;BME280;67151;52.544;6.034;2023-11-22T00:14:34;102750;;;21.1;46.2
77954;BME280;67151;52.544;6.034;2023-11-22T00:14:49;102759.99999999999;;;21.1;46.2
77954;BME280;67151;52.544;6.034;2023-11-22T00:15:04;102759.99999999999;;;21.1;46.1
77954;BME280;67151;52.544;6.034;2023-11-22T00:15:19;102759.99999999999;;;21.1;46.1
77954;BME280;67151;52.544;6.034;2023-11-22T00:15:34;102759.99999999999;;;21.2;46.1
77954;BME280;67151;52.544;6.034;2023-11-22T00:15:49;102759.99999999999;;;21.1;46.1
77954;BME280;67151;52.544;6.034;2023-11-22T00:16:04;102759.99999999999;;;21.2;46.1
77954;BME280;67151;52.544;6.034;2023-11-22T00:16:19;102759.99999999999;;;21.1;46.1
77954;BME280;67151;52.544;6.034;2023-11-22T00:16:34;102759.99999999999;;;21.1;46.2
77954;BME280;67151;52.544;6.034;2023-11-22T00:16:49;102759.99999999999;;;21.1;46.1
77954;BME280;67151;52.544;6.034;2023-11-22T00:17:04;102759.99999999999;;;21.1;46.2
77954;BME280;67151;52.544;6.034;2023-11-22T00:17:19;102759.99999999999;;;21.1;46.1
77954;BME280;67151;52.544;6.034;2023-11-22T00:17:34;102759.99999999999;;;21.1;46.1
77954;BME280;67151;52.544;6.034;2023-11-22T00:17:49;102759.99999999999;;;21.1;46.2
77954;BME280;67151;52.544;6.034;2023-11-22T00:18:04;102770;;;21.1;46.1
77954;BME280;67151;52.544;6.034;2023-11-22T00:18:19;102770;;;21.1;46.2
77954;BME280;67151;52.544;6.034;2023-11-22T00:18:34;102770;;;21.1;46.2
77954;BME280;67151;52.544;6.034;2023-11-22T00:18:49;102780;;;21.1;46.2
77954;BME280;67151;52.544;6.034;2023-11-22T00:19:04;102770;;;21.1;46.2
77954;BME280;67151;52.544;6.034;2023-11-22T00:19:19;102770;;;21.1;46.2
77954;BME280;67151;52.544;6.034;2023-11-22T00:19:34;102770;;;21.1;46.2
77954;BME280;67151;52.544;6.034;2023-11-22T00:19:49;102770;;;21.1;46.1
77954;BME280;67151;52.544;6.034;2023-11-22T00:20:04;102770;;;21.1;46.1
77954;BME280;67151;52.544;6.034;2023-11-22T00:20:19;102770;;;21.1;46.2
77954;BME280;67151;52.544;6.034;2023-11-22T00:20:34;102759.99999999999;;;21.1;46.1
77954;BME280;67151;52.544;6.034;2023-11-22T00:20:49;102759.99999999999;;;21.1;46.1
77954;BME280;67151;52.544;6.034;2023-11-22T00:21:04;102770;;;21.1;46.2
77954;BME280;67151;52.544;6.034;2023-11-22T00:21:19;102770;;;21.1;46.3
77954;BME280;67151;52.544;6.034;2023-11-22T00:21:34;102770;;;21;46.3
77954;BME280;67151;52.544;6.034;2023-11-22T00:21:49;102759.99999999999;;;21;46.4
77954;BME280;67151;52.544;6.034;2023-11-22T00:22:04;102770;;;21;46.3
77954;BME280;67151;52.544;6.034;2023-11-22T00:22:19;102770;;;21.1;46.2
77954;BME280;67151;52.544;6.034;2023-11-22T00:22:34;102770;;;21.1;46.2
77954;BME280;67151;52.544;6.034;2023-11-22T00:22:49;102770;;;21.1;46.2
77954;BME280;67151;52.544;6.034;2023-11-22T00:23:04;102770;;;21.1;46.1
77954;BME280;67151;52.544;6.034;2023-11-22T00:23:19;102770;;;21.1;46.1
77954;BME280;67151;52.544;6.034;2023-11-22T00:23:34;102770;;;21.1;46.1
77954;BME280;67151;52.544;6.034;2023-11-22T00:23:49;102770;;;21.1;46.1
77954;BME280;67151;52.544;6.034;2023-11-22T00:24:04;102770;;;21.1;46.1
77954;BME280;67151;52.544;6.034;2023-11-22T00:24:19;102770;;;21.1;46.1
77954;BME280;67151;52.544;6.034;2023-11-22T00:24:34;102780;;;21.2;46.1
77954;BME280;67151;52.544;6.034;2023-11-22T00:24:49;102770;;;21.1;46.1
77954;BME280;67151;52.544;6.034;2023-11-22T00:25:04;102770;;;21.1;46.1
77954;BME280;67151;52.544;6.034;2023-11-22T00:25:19;102759.99999999999;;;21.2;46.1
77954;BME280;67151;52.544;6.034;2023-11-22T00:25:34;102770;;;21.2;46
77954;BME280;67151;52.544;6.034;2023-11-22T00:25:49;102770;;;21.2;46
77954;BME280;67151;52.544;6.034;2023-11-22T00:26:04;102770;;;21.2;46
77954;BME280;67151;52.544;6.034;2023-11-22T00:26:19;102780;;;21.2;46
77954;BME280;67151;52.544;6.034;2023-11-22T00:26:34;102759.99999999999;;;21.2;46
77954;BME280;67151;52.544;6.034;2023-11-22T00:26:49;102759.99999999999;;;21.2;46
77954;BME280;67151;52.544;6.034;2023-11-22T00:27:04;102770;;;21.1;46.1
77954;BME280;67151;52.544;6.034;2023-11-22T00:27:19;102759.99999999999;;;21.2;46.1
77954;BME280;67151;52.544;6.034;2023-11-22T00:27:34;102759.99999999999;;;21.2;46
77954;BME280;67151;52.544;6.034;2023-11-22T00:27:49;102759.99999999999;;;21.1;46
77954;BME280;67151;52.544;6.034;2023-11-22T00:28:04;102770;;;21.2;46
77954;BME280;67151;52.544;6.034;2023-11-22T00:28:19;102770;;;21.1;46.1
77954;BME280;67151;52.544;6.034;2023-11-22T00:28:34;102759.99999999999;;;21.2;46.1
77954;BME280;67151;52.544;6.034;2023-11-22T00:28:49;102759.99999999999;;;21.2;46
77954;BME280;67151;52.544;6.034;2023-11-22T00:29:04;102759.99999999999;;;21.2;46
77954;BME280;67151;52.544;6.034;2023-11-22T00:29:19;102759.99999999999;;;21.2;46
77954;BME280;67151;52.544;6.034;2023-11-22T00:29:34;102759.99999999999;;;21.1;46.1
77954;BME280;67151;52.544;6.034;2023-11-22T00:29:49;102759.99999999999;;;21.1;46.1
77954;BME280;67151;52.544;6.034;2023-11-22T00:30:04;102759.99999999999;;;21.2;46
77954;BME280;67151;52.544;6.034;2023-11-22T00:30:19;102759.99999999999;;;21.2;46
77954;BME280;67151;52.544;6.034;2023-11-22T00:30:34;102770;;;21.2;46
77954;BME280;67151;52.544;6.034;2023-11-22T00:30:49;102759.99999999999;;;21.2;46
77954;BME280;67151;52.544;6.034;2023-11-22T00:31:04;102759.99999999999;;;21.2;46
77954;BME280;67151;52.544;6.034;2023-11-22T00:31:19;102759.99999999999;;;21.2;46
77954;BME280;67151;52.544;6.034;2023-11-22T00:31:34;102759.99999999999;;;21.2;46
77954;BME280;67151;52.544;6.034;2023-11-22T00:31:49;102759.99999999999;;;21.2;46
77954;BME280;67151;52.544;6.034;2023-11-22T00:32:04;102770;;;21.2;46
77954;BME280;67151;52.544;6.034;2023-11-22T00:32:19;102759.99999999999;;;21.1;46
77954;BME280;67151;52.544;6.034;2023-11-22T00:32:34;102759.99999999999;;;21.2;46
77954;BME280;67151;52.544;6.034;2023-11-22T00:32:49;102759.99999999999;;;21.2;46
77954;BME280;67151;52.544;6.034;2023-11-22T00:33:04;102759.99999999999;;;21.2;46
77954;BME280;67151;52.544;6.034;2023-11-22T00:33:19;102759.99999999999;;;21.1;46.1
77954;BME280;67151;52.544;6.034;2023-11-22T00:33:34;102759.99999999999;;;21.1;46.2
77954;BME280;67151;52.544;6.034;2023-11-22T00:33:49;102759.99999999999;;;21.1;46.2
77954;BME280;67151;52.544;6.034;2023-11-22T00:34:04;102770;;;21.1;46.1
77954;BME280;67151;52.544;6.034;2023-11-22T00:34:19;102770;;;21.1;46.1
77954;BME280;67151;52.544;6.034;2023-11-22T00:34:34;102770;;;21.2;46.1
77954;BME280;67151;52.544;6.034;2023-11-22T00:34:49;102759.99999999999;;;21.2;46
77954;BME280;67151;52.544;6.034;2023-11-22T00:35:04;102770;;;21.2;46
77954;BME280;67151;52.544;6.034;2023-11-22T00:35:19;102770;;;21.2;46
77954;BME280;67151;52.544;6.034;2023-11-22T00:35:34;102759.99999999999;;;21.2;46
77954;BME280;67151;52.544;6.034;2023-11-22T00:35:49;102770;;;21.2;46
77954;BME280;67151;52.544;6.034;2023-11-22T00:36:04;102770;;;21.1;46.1
77954;BME280;67151;52.544;6.034;2023-11-22T00:36:19;102770;;;21.2;46
77954;BME280;67151;52.544;6.034;2023-11-22T00:36:34;102770;;;21.2;46
77954;BME280;67151;52.544;6.034;2023-11-22T00:36:49;102759.99999999999;;;21.1;46.1
77954;BME280;67151;52.544;6.034;2023-11-22T00:37:04;102770;;;21.1;46.1
77954;BME280;67151;52.544;6.034;2023-11-22T00:37:19;102759.99999999999;;;21.1;46.1
77954;BME280;67151;52.544;6.034;2023-11-22T00:37:34;102770;;;21.1;46.1
77954;BME280;67151;52.544;6.034;2023-11-22T00:37:49;102770;;;21.1;46
77954;BME280;67151;52.544;6.034;2023-11-22T00:38:04;102770;;;21.1;46.1
77954;BME280;67151;52.544;6.034;2023-11-22T00:38:19;102770;;;21.1;46
77954;BME280;67151;52.544;6.034;2023-11-22T00:38:34;102770;;;21.1;46
77954;BME280;67151;52.544;6.034;2023-11-22T00:38:49;102770;;;21.1;46
77954;BME280;67151;52.544;6.034;2023-11-22T00:39:04;102770;;;21.1;46
77954;BME280;67151;52.544;6.034;2023-11-22T00:39:19;102770;;;21.1;46.1
77954;BME280;67151;52.544;6.034;2023-11-22T00:39:34;102770;;;21.1;46.1
77954;BME280;67151;52.544;6.034;2023-11-22T00:39:49;102770;;;21.1;46.1
77954;BME280;67151;52.544;6.034;2023-11-22T00:40:04;102770;;;21.1;46.1
77954;BME280;67151;52.544;6.034;2023-11-22T00:40:19;102770;;;21.1;46.1
77954;BME280;67151;52.544;6.034;2023-11-22T00:40:34;102770;;;21.1;46.1
77954;BME280;67151;52.544;6.034;2023-11-22T00:40:49;102770;;;21.1;46.1
77954;BME280;67151;52.544;6.034;2023-11-22T00:41:04;102770;;;21.2;46
77954;BME280;67151;52.544;6.034;2023-11-22T00:41:19;102770;;;21.1;46
77954;BME280;67151;52.544;6.034;2023-11-22T00:41:34;102770;;;21.1;46
77954;BME280;67151;52.544;6.034;2023-11-22T00:41:49;102770;;;21.1;46.1
77954;BME280;67151;52.544;6.034;2023-11-22T00:42:04;102770;;;21.1;46.1
77954;BME280;67151;52.544;6.034;2023-11-22T00:42:19;102770;;;21.1;46
77954;BME280;67151;52.544;6.034;2023-11-22T00:42:34;102770;;;21.1;46
77954;BME280;67151;52.544;6.034;2023-11-22T00:42:49;102770;;;21.1;46
77954;BME280;67151;52.544;6.034;2023-11-22T00:43:04;102770;;;21.2;46
77954;BME280;67151;52.544;6.034;2023-11-22T00:43:19;102770;;;21.1;46
77954;BME280;67151;52.544;6.034;2023-11-22T00:43:34;102770;;;21.1;46
77954;BME280;67151;52.544;6.034;2023-11-22T00:43:49;102770;;;21.1;46
77954;BME280;67151;52.544;6.034;2023-11-22T00:44:04;102770;;;21.1;46
77954;BME280;67151;52.544;6.034;2023-11-22T00:44:19;102770;;;21.1;46.1
77954;BME280;67151;52.544;6.034;2023-11-22T00:44:34;102770;;;21.1;46.1
77954;BME280;67151;52.544;6.034;2023-11-22T00:44:49;102780;;;21.1;46
77954;BME280;67151;52.544;6.034;2023-11-22T00:45:04;102770;;;21.1;46
77954;BME280;67151;52.544;6.034;2023-11-22T00:45:19;102770;;;21.1;46
77954;BME280;67151;52.544;6.034;2023-11-22T00:45:34;102759.99999999999;;;21.2;46
77954;BME280;67151;52.544;6.034;2023-11-22T00:45:49;102770;;;21.1;46
77954;BME280;67151;52.544;6.034;2023-11-22T00:46:04;102770;;;21.1;46
77954;BME280;67151;52.544;6.034;2023-11-22T00:46:19;102759.99999999999;;;21.1;46
77954;BME280;67151;52.544;6.034;2023-11-22T00:46:34;102770;;;21.2;46
77954;BME280;67151;52.544;6.034;2023-11-22T00:46:49;102770;;;21.2;45.9
77954;BME280;67151;52.544;6.034;2023-11-22T00:47:04;102770;;;21.2;45.9
77954;BME280;67151;52.544;6.034;2023-11-22T00:47:19;102770;;;21.2;46
77954;BME280;67151;52.544;6.034;2023-11-22T00:47:34;102770;;;21.2;46
77954;BME280;67151;52.544;6.034;2023-11-22T00:47:49;102770;;;21.2;45.9
77954;BME280;67151;52.544;6.034;2023-11-22T00:48:04;102770;;;21.2;45.9
77954;BME280;67151;52.544;6.034;2023-11-22T00:48:19;102770;;;21.2;45.9
77954;BME280;67151;52.544;6.034;2023-11-22T00:48:34;102770;;;21.2;45.9
77954;BME280;67151;52.544;6.034;2023-11-22T00:48:49;102770;;;21.1;46
77954;BME280;67151;52.544;6.034;2023-11-22T00:49:04;102770;;;21.1;46.1
77954;BME280;67151;52.544;6.034;2023-11-22T00:49:19;102770;;;21.1;46.1
77954;BME280;67151;52.544;6.034;2023-11-22T00:49:34;102770;;;21.1;46
77954;BME280;67151;52.544;6.034;2023-11-22T00:49:49;102770;;;21.1;46.1
77954;BME280;67151;52.544;6.034;2023-11-22T00:50:04;102780;;;21.1;46.1
77954;BME280;67151;52.544;6.034;2023-11-22T00:50:19;102770;;;21.1;46.2
77954;BME280;67151;52.544;6.034;2023-11-22T00:50:34;102770;;;21;46.2
77954;BME280;67151;52.544;6.034;2023-11-22T00:50:49;102770;;;21.1;46.1
77954;BME280;67151;52.544;6.034;2023-11-22T00:51:04;102770;;;21.1;46.2
77954;BME280;67151;52.544;6.034;2023-11-22T00:51:19;102780;;;21.1;46.2
77954;BME280;67151;52.544;6.034;2023-11-22T00:51:34;102770;;;21;46.2
77954;BME280;67151;52.544;6.034;2023-11-22T00:51:49;102770;;;21.1;46.2
77954;BME280;67151;52.544;6.034;2023-11-22T00:52:04;102770;;;21.1;46.1
77954;BME280;67151;52.544;6.034;2023-11-22T00:52:19;102770;;;21.1;46.1
77954;BME280;67151;52.544;6.034;2023-11-22T00:52:34;102770;;;21.1;46.1
77954;BME280;67151;52.544;6.034;2023-11-22T00:52:49;102770;;;21.1;46.1
77954;BME280;67151;52.544;6.034;2023-11-22T00:53:04;102770;;;21.1;46.1
77954;BME280;67151;52.544;6.034;2023-11-22T00:53:19;102770;;;21.1;46.1
77954;BME280;67151;52.544;6.034;2023-11-22T00:53:34;102770;;;21.1;46.1
77954;BME280;67151;52.544;6.034;2023-11-22T00:53:49;102780;;;21.1;46.1
77954;BME280;67151;52.544;6.034;2023-11-22T00:54:04;102770;;;21.1;46.1
77954;BME280;67151;52.544;6.034;2023-11-22T00:54:19;102770;;;21.1;46
77954;BME280;67151;52.544;6.034;2023-11-22T00:54:34;102770;;;21.1;46
77954;BME280;67151;52.544;6.034;2023-11-22T00:54:49;102770;;;21.1;46.1
77954;BME280;67151;52.544;6.034;2023-11-22T00:55:04;102780;;;21.1;46.1
77954;BME280;67151;52.544;6.034;2023-11-22T00:55:19;102780;;;21.1;46.1
77954;BME280;67151;52.544;6.034;2023-11-22T00:55:34;102770;;;21.1;46.1
77954;BME280;67151;52.544;6.034;2023-11-22T00:55:49;102780;;;21.1;46.1
77954;BME280;67151;52.544;6.034;2023-11-22T00:56:04;102770;;;21.1;46.1
77954;BME280;67151;52.544;6.034;2023-11-22T00:56:19;102780;;;21.1;46.1
77954;BME280;67151;52.544;6.034;2023-11-22T00:56:34;102780;;;21;46.2
77954;BME280;67151;52.544;6.034;2023-11-22T00:56:49;102780;;;21.1;46.2
77954;BME280;67151;52.544;6.034;2023-11-22T00:57:04;102780;;;21.1;46.1
77954;BME280;67151;52.544;6.034;2023-11-22T00:57:19;102780;;;21.1;46.2
77954;BME280;67151;52.544;6.034;2023-11-22T00:57:34;102780;;;21.1;46.2
77954;BME280;67151;52.544;6.034;2023-11-22T00:57:49;102780;;;21.1;46.1
77954;BME280;67151;52.544;6.034;2023-11-22T00:58:04;102780;;;21.1;46.1
77954;BME280;67151;52.544;6.034;2023-11-22T00:58:19;102780;;;21.1;46
77954;BME280;67151;52.544;6.034;2023-11-22T00:58:34;102780;;;21.1;46
77954;BME280;67151;52.544;6.034;2023-11-22T00:58:49;102780;;;21.1;46
77954;BME280;67151;52.544;6.034;2023-11-22T00:59:04;102780;;;21.1;46
77954;BME280;67151;52.544;6.034;2023-11-22T00:59:19;102770;;;21.1;46
77954;BME280;67151;52.544;6.034;2023-11-22T00:59:34;102780;;;21.1;46
77954;BME280;67151;52.544;6.034;2023-11-22T00:59:49;102780;;;21;46.2
77954;BME280;67151;52.544;6.034;2023-11-22T01:00:04;102770;;;21;46.2
77954;BME280;67151;52.544;6.034;2023-11-22T01:00:19;102780;;;21.1;46.2
77954;BME280;67151;52.544;6.034;2023-11-22T01:00:34;102780;;;21.1;46.1
77954;BME280;67151;52.544;6.034;2023-11-22T01:00:49;102780;;;21.1;46.1
77954;BME280;67151;52.544;6.034;2023-11-22T01:01:04;102780;;;21.1;46.1
77954;BME280;67151;52.544;6.034;2023-11-22T01:01:19;102780;;;21.1;46.1
77954;BME280;67151;52.544;6.034;2023-11-22T01:01:34;102780;;;21.1;46.1
77954;BME280;67151;52.544;6.034;2023-11-22T01:01:49;102780;;;21.1;46.1
77954;BME280;67151;52.544;6.034;2023-11-22T01:02:04;102780;;;21.1;46.1
77954;BME280;67151;52.544;6.034;2023-11-22T01:02:19;102790.00000000001;;;21.1;46.1
77954;BME280;67151;52.544;6.034;2023-11-22T01:02:34;102780;;;21.1;46
77954;BME280;67151;52.544;6.034;2023-11-22T01:02:49;102780;;;21.1;46
77954;BME280;67151;52.544;6.034;2023-11-22T01:03:04;102790.00000000001;;;21.1;46
77954;BME280;67151;52.544;6.034;2023-11-22T01:03:19;102780;;;21.1;46
77954;BME280;67151;52.544;6.034;2023-11-22T01:03:34;102780;;;21.1;46
77954;BME280;67151;52.544;6.034;2023-11-22T01:03:49;102790.00000000001;;;21.1;46
77954;BME280;67151;52.544;6.034;2023-11-22T01:04:04;102780;;;21.1;46
77954;BME280;67151;52.544;6.034;2023-11-22T01:04:19;102790.00000000001;;;21.1;45.9
77954;BME280;67151;52.544;6.034;2023-11-22T01:04:34;102790.00000000001;;;21.1;45.9
77954;BME280;67151;52.544;6.034;2023-11-22T01:04:49;102780;;;21.2;45.9
77954;BME280;67151;52.544;6.034;2023-11-22T01:05:04;102790.00000000001;;;21.1;45.9
77954;BME280;67151;52.544;6.034;2023-11-22T01:05:19;102790.00000000001;;;21.1;46
77954;BME280;67151;52.544;6.034;2023-11-22T01:05:34;102780;;;21.1;46.1
77954;BME280;67151;52.544;6.034;2023-11-22T01:05:49;102790.00000000001;;;21.1;46
77954;BME280;67151;52.544;6.034;2023-11-22T01:06:04;102790.00000000001;;;21.1;46
77954;BME280;67151;52.544;6.034;2023-11-22T01:06:19;102780;;;21.1;46
77954;BME280;67151;52.544;6.034;2023-11-22T01:06:34;102790.00000000001;;;21.1;46
77954;BME280;67151;52.544;6.034;2023-11-22T01:06:49;102790.00000000001;;;21.1;46
77954;BME280;67151;52.544;6.034;2023-11-22T01:07:04;102790.00000000001;;;21.1;46
77954;BME280;67151;52.544;6.034;2023-11-22T01:07:19;102790.00000000001;;;21.1;46
77954;BME280;67151;52.544;6.034;2023-11-22T01:07:34;102790.00000000001;;;21.1;46
77954;BME280;67151;52.544;6.034;2023-11-22T01:07:49;102790.00000000001;;;21.1;45.9
77954;BME280;67151;52.544;6.034;2023-11-22T01:08:04;102790.00000000001;;;21.1;45.9
77954;BME280;67151;52.544;6.034;2023-11-22T01:08:19;102800;;;21.1;45.9
77954;BME280;67151;52.544;6.034;2023-11-22T01:08:34;102790.00000000001;;;21.1;45.9
77954;BME280;67151;52.544;6.034;2023-11-22T01:08:49;102800;;;21.1;45.9
77954;BME280;67151;52.544;6.034;2023-11-22T01:09:04;102800;;;21.1;46
77954;BME280;67151;52.544;6.034;2023-11-22T01:09:19;102800;;;21.1;46
77954;BME280;67151;52.544;6.034;2023-11-22T01:09:34;102800;;;21.1;46
77954;BME280;67151;52.544;6.034;2023-11-22T01:09:49;102790.00000000001;;;21.1;46
77954;BME280;67151;52.544;6.034;2023-11-22T01:10:04;102800;;;21.1;46.1
77954;BME280;67151;52.544;6.034;2023-11-22T01:10:19;102800;;;21;46.2
77954;BME280;67151;52.544;6.034;2023-11-22T01:10:34;102800;;;21;46.3
77954;BME280;67151;52.544;6.034;2023-11-22T01:10:49;102800;;;21;46.2
77954;BME280;67151;52.544;6.034;2023-11-22T01:11:04;102809.99999999999;;;21;46.2
77954;BME280;67151;52.544;6.034;2023-11-22T01:11:19;102809.99999999999;;;21.1;46.1
77954;BME280;67151;52.544;6.034;2023-11-22T01:11:34;102809.99999999999;;;21.1;46.1
77954;BME280;67151;52.544;6.034;2023-11-22T01:11:49;102800;;;21;46.1
77954;BME280;67151;52.544;6.034;2023-11-22T01:12:04;102809.99999999999;;;21;46.2
77954;BME280;67151;52.544;6.034;2023-11-22T01:12:19;102809.99999999999;;;21;46.2
77954;BME280;67151;52.544;6.034;2023-11-22T01:12:34;102809.99999999999;;;21;46.3
77954;BME280;67151;52.544;6.034;2023-11-22T01:12:49;102809.99999999999;;;21;46.2
77954;BME280;67151;52.544;6.034;2023-11-22T01:13:04;102820;;;21;46.2
77954;BME280;67151;52.544;6.034;2023-11-22T01:13:19;102820;;;21.1;46.2
77954;BME280;67151;52.544;6.034;2023-11-22T01:13:34;102820;;;21;46.2
77954;BME280;67151;52.544;6.034;2023-11-22T01:13:49;102820;;;21;46.2
77954;BME280;67151;52.544;6.034;2023-11-22T01:14:04;102830;;;21.1;46.1
77954;BME280;67151;52.544;6.034;2023-11-22T01:14:19;102830;;;21.1;46.1
77954;BME280;67151;52.544;6.034;2023-11-22T01:14:34;102830;;;21.1;46.1
77954;BME280;67151;52.544;6.034;2023-11-22T01:14:49;102830;;;21.1;46.1
77954;BME280;67151;52.544;6.034;2023-11-22T01:15:04;102830;;;21.1;46.1
77954;BME280;67151;52.544;6.034;2023-11-22T01:15:19;102830;;;21.1;46.1
77954;BME280;67151;52.544;6.034;2023-11-22T01:15:34;102830;;;21.1;46
77954;BME280;67151;52.544;6.034;2023-11-22T01:15:49;102830;;;21.1;46
77954;BME280;67151;52.544;6.034;2023-11-22T01:16:06;102830;;;21.1;46
77954;BME280;67151;52.544;6.034;2023-11-22T01:16:19;102830;;;21.1;46
77954;BME280;67151;52.544;6.034;2023-11-22T01:16:34;102830;;;21.1;46.1
77954;BME280;67151;52.544;6.034;2023-11-22T01:16:49;102840.00000000001;;;21.1;46.1
77954;BME280;67151;52.544;6.034;2023-11-22T01:17:04;102840.00000000001;;;21.1;46
77954;BME280;67151;52.544;6.034;2023-11-22T01:17:19;102840.00000000001;;;21.1;46
77954;BME280;67151;52.544;6.034;2023-11-22T01:17:34;102840.00000000001;;;21.1;46
77954;BME280;67151;52.544;6.034;2023-11-22T01:17:49;102840.00000000001;;;21.1;46
77954;BME280;67151;52.544;6.034;2023-11-22T01:18:04;102840.00000000001;;;21.1;45.9
77954;BME280;67151;52.544;6.034;2023-11-22T01:18:19;102840.00000000001;;;21.1;46
77954;BME280;67151;52.544;6.034;2023-11-22T01:18:34;102850;;;21.1;46
77954;BME280;67151;52.544;6.034;2023-11-22T01:18:49;102840.00000000001;;;21.1;46
77954;BME280;67151;52.544;6.034;2023-11-22T01:19:04;102840.00000000001;;;21.1;46
77954;BME280;67151;52.544;6.034;2023-11-22T01:19:19;102850;;;21.1;46.1
77954;BME280;67151;52.544;6.034;2023-11-22T01:19:34;102840.00000000001;;;21.1;46.1
77954;BME280;67151;52.544;6.034;2023-11-22T01:19:49;102850;;;21.1;46.1
77954;BME280;67151;52.544;6.034;2023-11-22T01:20:04;102850;;;21.1;46
77954;BME280;67151;52.544;6.034;2023-11-22T01:20:19;102850;;;21.1;46